createdAt,value
2018-05-29T00:00:35.897Z,7.33
2018-05-29T00:03:04.094Z,7.60
2018-05-29T00:05:32.294Z,7.83
2018-05-29T00:08:00.503Z,7.50
2018-05-29T00:10:28.699Z,7.37
2018-05-29T00:12:56.903Z,6.97
2018-05-29T00:15:25.098Z,8.20
2018-05-29T00:17:53.309Z,7.57
2018-05-29T00:20:21.525Z,7.80
2018-05-29T00:22:49.726Z,7.77
2018-05-29T00:25:17.926Z,7.70
2018-05-29T00:27:46.118Z,7.40
2018-05-29T00:30:14.338Z,8.20
2018-05-29T00:32:43.302Z,7.23
2018-05-29T00:35:11.503Z,7.90
2018-05-29T00:37:39.695Z,7.50
2018-05-29T00:40:07.903Z,7.47
2018-05-29T00:42:36.878Z,7.30
2018-05-29T00:45:05.078Z,7.30
2018-05-29T00:47:33.271Z,7.83
2018-05-29T00:50:01.470Z,7.43
2018-05-29T00:52:29.674Z,8.27
2018-05-29T00:55:09.717Z,7.40
2018-05-29T00:57:37.915Z,8.20
2018-05-29T01:00:06.187Z,7.30
2018-05-29T01:02:34.383Z,7.17
2018-05-29T01:05:02.607Z,7.00
2018-05-29T01:07:30.818Z,7.57
2018-05-29T01:09:59.787Z,7.73
2018-05-29T01:12:28.037Z,7.97
2018-05-29T01:14:56.250Z,8.07
2018-05-29T01:17:24.511Z,7.13
2018-05-29T01:19:52.706Z,8.03
2018-05-29T01:22:21.055Z,7.80
2018-05-29T01:24:49.263Z,7.37
2018-05-29T01:27:17.470Z,8.30
2018-05-29T01:29:46.478Z,7.67
2018-05-29T01:32:14.671Z,8.67
2018-05-29T01:34:42.850Z,7.80
2018-05-29T01:37:11.058Z,7.57
2018-05-29T01:39:39.271Z,7.67
2018-05-29T01:42:07.509Z,7.77
2018-05-29T01:44:35.721Z,7.63
2018-05-29T01:47:03.898Z,7.37
2018-05-29T01:49:32.110Z,7.70
2018-05-29T01:52:00.334Z,7.70
2018-05-29T01:54:28.549Z,8.43
2018-05-29T01:56:56.747Z,7.80
2018-05-29T01:59:24.961Z,7.80
2018-05-29T02:01:53.170Z,8.10
2018-05-29T02:04:21.411Z,7.30
2018-05-29T02:06:49.567Z,8.13
2018-05-29T02:09:17.787Z,7.97
2018-05-29T02:11:45.980Z,7.43
2018-05-29T02:14:14.236Z,8.27
2018-05-29T02:16:42.419Z,7.63
2018-05-29T02:19:10.624Z,8.50
2018-05-29T02:21:38.822Z,7.97
2018-05-29T02:24:07.015Z,7.67
2018-05-29T02:26:35.212Z,7.90
2018-05-29T02:29:03.421Z,8.10
2018-05-29T02:31:31.615Z,7.87
2018-05-29T02:33:59.832Z,7.17
2018-05-29T02:36:28.086Z,8.03
2018-05-29T02:38:56.303Z,7.80
2018-05-29T02:41:24.494Z,8.00
2018-05-29T02:43:52.697Z,7.80
2018-05-29T02:46:20.896Z,7.97
2018-05-29T02:48:49.091Z,8.03
2018-05-29T02:51:17.327Z,7.80
2018-05-29T02:53:45.522Z,7.90
2018-05-29T02:56:14.497Z,7.80
2018-05-29T02:58:42.689Z,7.90
2018-05-29T03:01:10.878Z,7.47
2018-05-29T03:03:39.090Z,8.00
2018-05-29T03:06:07.291Z,8.47
2018-05-29T03:08:35.502Z,7.63
2018-05-29T03:11:03.745Z,8.37
2018-05-29T03:13:31.938Z,7.90
2018-05-29T03:16:00.916Z,7.53
2018-05-29T03:18:29.115Z,8.00
2018-05-29T03:20:57.314Z,22.87
2018-05-29T03:23:25.522Z,27.60
2018-05-29T03:25:53.734Z,29.63
2018-05-29T03:28:21.956Z,32.40
2018-05-29T03:30:50.168Z,33.80
2018-05-29T03:33:18.370Z,32.17
2018-05-29T03:35:46.574Z,34.70
2018-05-29T03:38:14.787Z,32.30
2018-05-29T03:40:43.014Z,33.47
2018-05-29T03:43:12.223Z,32.93
2018-05-29T03:45:40.440Z,35.27
2018-05-29T03:48:08.698Z,34.67
2018-05-29T03:50:36.899Z,33.83
2018-05-29T03:53:05.180Z,34.27
2018-05-29T03:55:33.526Z,35.33
2018-05-29T03:58:01.739Z,34.90
2018-05-29T04:00:29.939Z,35.37
2018-05-29T04:02:58.166Z,34.93
2018-05-29T04:05:26.409Z,36.17
2018-05-29T04:07:54.631Z,35.00
2018-05-29T04:10:22.870Z,35.33
2018-05-29T04:12:51.882Z,35.33
2018-05-29T04:15:20.111Z,35.73
2018-05-29T04:17:48.327Z,35.87
2018-05-29T04:20:16.531Z,36.17
2018-05-29T04:22:44.734Z,38.23
2018-05-29T04:25:12.935Z,36.53
2018-05-29T04:27:41.146Z,36.67
2018-05-29T04:30:09.367Z,37.60
2018-05-29T04:32:37.647Z,37.50
2018-05-29T04:35:05.856Z,37.40
2018-05-29T04:37:34.063Z,41.13
2018-05-29T04:40:02.275Z,39.60
2018-05-29T04:42:31.264Z,40.33
2018-05-29T04:44:59.539Z,39.73
2018-05-29T04:47:27.754Z,41.20
2018-05-29T04:49:55.974Z,38.63
2018-05-29T04:52:24.186Z,39.10
2018-05-29T04:54:52.399Z,40.33
2018-05-29T04:57:20.610Z,41.83
2018-05-29T04:59:48.823Z,39.83
2018-05-29T05:02:17.801Z,41.17
2018-05-29T05:04:46.022Z,38.90
2018-05-29T05:07:14.282Z,39.37
2018-05-29T05:09:43.270Z,40.20
2018-05-29T05:12:11.478Z,41.67
2018-05-29T05:14:40.483Z,40.83
2018-05-29T05:17:08.691Z,39.93
2018-05-29T05:19:36.924Z,39.63
2018-05-29T05:22:05.129Z,40.83
2018-05-29T05:24:33.368Z,42.63
2018-05-29T05:27:01.534Z,41.43
2018-05-29T05:29:29.743Z,41.67
2018-05-29T05:31:58.046Z,41.80
2018-05-29T05:34:26.434Z,39.53
2018-05-29T05:36:54.653Z,41.70
2018-05-29T05:39:22.854Z,42.03
2018-05-29T05:41:51.062Z,39.73
2018-05-29T05:44:19.279Z,39.70
2018-05-29T05:46:47.490Z,40.90
2018-05-29T05:49:15.699Z,41.50
2018-05-29T05:51:43.901Z,41.13
2018-05-29T05:54:12.875Z,42.00
2018-05-29T05:56:41.098Z,41.17
2018-05-29T05:59:09.303Z,39.90
2018-05-29T06:01:37.515Z,39.83
2018-05-29T06:04:05.742Z,43.47
2018-05-29T06:06:33.954Z,37.50
2018-05-29T06:09:02.177Z,37.47
2018-05-29T06:11:31.124Z,40.70
2018-05-29T06:13:59.330Z,38.03
2018-05-29T06:16:27.569Z,41.17
2018-05-29T06:18:55.761Z,39.37
2018-05-29T06:21:23.979Z,39.37
2018-05-29T06:23:53.343Z,39.10
2018-05-29T06:26:22.308Z,37.63
2018-05-29T06:28:51.286Z,38.70
2018-05-29T06:31:19.494Z,39.63
2018-05-29T06:33:47.718Z,39.63
2018-05-29T06:36:15.926Z,36.60
2018-05-29T06:38:44.965Z,38.50
2018-05-29T06:41:13.886Z,39.87
2018-05-29T06:43:42.099Z,39.37
2018-05-29T06:46:10.328Z,39.77
2018-05-29T06:48:38.562Z,40.83
2018-05-29T06:51:06.766Z,37.67
2018-05-29T06:53:34.974Z,39.23
2018-05-29T06:56:03.180Z,40.57
2018-05-29T06:58:31.383Z,37.83
2018-05-29T07:00:59.623Z,37.90
2018-05-29T07:03:27.827Z,38.40
2018-05-29T07:05:56.376Z,41.97
2018-05-29T07:08:24.557Z,39.63
2018-05-29T07:10:52.759Z,39.10
2018-05-29T07:13:20.971Z,39.20
2018-05-29T07:15:49.940Z,39.53
2018-05-29T07:18:18.142Z,40.57
2018-05-29T07:20:46.371Z,32.23
2018-05-29T07:23:14.567Z,27.50
2018-05-29T07:25:42.770Z,24.63
2018-05-29T07:28:10.975Z,23.93
2018-05-29T07:30:39.188Z,21.93
2018-05-29T07:33:07.390Z,20.57
2018-05-29T07:35:35.608Z,19.50
2018-05-29T07:38:03.823Z,18.17
2018-05-29T07:40:32.083Z,16.53
2018-05-29T07:43:00.287Z,16.03
2018-05-29T07:45:29.257Z,16.70
2018-05-29T07:47:57.467Z,17.43
2018-05-29T07:50:25.671Z,16.87
2018-05-29T07:52:53.917Z,16.37
2018-05-29T07:55:22.101Z,17.47
2018-05-29T07:57:50.302Z,17.23
2018-05-29T08:00:18.511Z,18.43
2018-05-29T08:02:46.719Z,18.10
2018-05-29T08:05:14.926Z,19.83
2018-05-29T08:07:43.138Z,19.57
2018-05-29T08:10:12.106Z,19.93
2018-05-29T08:12:40.323Z,18.37
2018-05-29T08:15:08.551Z,20.10
2018-05-29T08:17:36.758Z,21.33
2018-05-29T08:20:05.012Z,20.00
2018-05-29T08:22:33.223Z,20.23
2018-05-29T08:25:01.438Z,20.03
2018-05-29T08:27:29.655Z,28.27
2018-05-29T08:29:57.859Z,28.07
2018-05-29T08:32:26.062Z,29.33
2018-05-29T08:34:54.285Z,32.33
2018-05-29T08:37:22.485Z,32.10
2018-05-29T08:39:50.682Z,33.53
2018-05-29T08:42:18.891Z,30.30
2018-05-29T08:44:47.870Z,30.93
2018-05-29T08:47:16.843Z,27.10
2018-05-29T08:49:45.050Z,34.43
2018-05-29T08:52:13.254Z,31.43
2018-05-29T08:54:41.495Z,30.07
2018-05-29T08:57:09.707Z,29.93
2018-05-29T08:59:37.928Z,29.43
2018-05-29T09:02:06.131Z,31.37
2018-05-29T09:04:34.347Z,30.43
2018-05-29T09:07:02.554Z,31.33
2018-05-29T09:09:30.751Z,27.23
2018-05-29T09:11:58.978Z,28.20
2018-05-29T09:14:27.211Z,24.17
2018-05-29T09:16:55.580Z,33.60
2018-05-29T09:19:23.787Z,25.10
2018-05-29T09:21:52.028Z,23.80
2018-05-29T09:24:20.368Z,23.03
2018-05-29T09:26:48.567Z,30.20
2018-05-29T09:29:16.778Z,31.90
2018-05-29T09:31:44.978Z,26.27
2018-05-29T09:34:13.185Z,24.43
2018-05-29T09:36:41.390Z,24.50
2018-05-29T09:39:09.596Z,23.80
2018-05-29T09:41:37.820Z,21.33
2018-05-29T09:44:06.032Z,20.87
2018-05-29T09:46:34.238Z,19.80
2018-05-29T09:49:02.611Z,19.40
2018-05-29T09:51:30.815Z,20.03
2018-05-29T09:53:59.027Z,19.23
2018-05-29T09:56:27.460Z,21.37
2018-05-29T09:58:56.451Z,18.43
2018-05-29T10:01:24.636Z,17.23
2018-05-29T10:03:52.881Z,17.07
2018-05-29T10:06:21.170Z,18.40
2018-05-29T10:08:49.383Z,20.87
2018-05-29T10:11:17.643Z,22.23
2018-05-29T10:13:45.795Z,20.63
2018-05-29T10:16:13.998Z,18.80
2018-05-29T10:18:42.207Z,21.10
2018-05-29T10:21:10.418Z,18.50
2018-05-29T10:23:38.635Z,17.93
2018-05-29T10:26:06.915Z,21.17
2018-05-29T10:28:35.126Z,21.93
2018-05-29T10:31:03.342Z,21.80
2018-05-29T10:33:31.546Z,21.57
2018-05-29T10:35:59.758Z,19.20
2018-05-29T10:38:27.966Z,17.93
2018-05-29T10:40:56.178Z,17.40
2018-05-29T10:43:24.395Z,17.63
2018-05-29T10:45:52.603Z,18.57
2018-05-29T10:48:20.834Z,19.43
2018-05-29T10:50:49.852Z,16.60
2018-05-29T10:53:18.052Z,16.13
2018-05-29T10:55:46.218Z,17.90
2018-05-29T10:58:14.425Z,16.13
2018-05-29T11:00:42.627Z,15.83
2018-05-29T11:03:10.858Z,15.83
2018-05-29T11:05:39.062Z,16.33
2018-05-29T11:08:07.338Z,16.13
2018-05-29T11:10:36.308Z,14.53
2018-05-29T11:13:04.591Z,15.00
2018-05-29T11:15:32.779Z,15.17
2018-05-29T11:18:01.140Z,16.10
2018-05-29T11:20:30.131Z,15.67
2018-05-29T11:22:59.109Z,14.97
2018-05-29T11:25:27.319Z,14.17
2018-05-29T11:27:55.539Z,14.67
2018-05-29T11:30:23.759Z,14.07
2018-05-29T11:32:51.967Z,12.93
2018-05-29T11:35:20.218Z,13.47
2018-05-29T11:37:48.468Z,13.20
2018-05-29T11:40:16.662Z,13.03
2018-05-29T11:42:44.871Z,12.73
2018-05-29T11:45:13.084Z,11.93
2018-05-29T11:47:41.287Z,12.83
2018-05-29T11:50:09.499Z,14.00
2018-05-29T11:52:37.799Z,12.50
2018-05-29T11:55:06.008Z,12.57
2018-05-29T11:57:34.235Z,12.30
2018-05-29T12:00:02.443Z,13.00
2018-05-29T12:02:30.653Z,13.57
2018-05-29T12:04:58.854Z,12.90
2018-05-29T12:07:27.067Z,11.80
2018-05-29T12:09:55.281Z,11.80
2018-05-29T12:12:25.380Z,13.27
2018-05-29T12:14:53.591Z,11.90
2018-05-29T12:17:21.800Z,12.43
2018-05-29T12:19:50.004Z,12.97
2018-05-29T12:22:18.261Z,13.43
2018-05-29T12:24:46.428Z,12.50
2018-05-29T12:27:15.414Z,11.83
2018-05-29T12:29:43.796Z,12.03
2018-05-29T12:32:12.784Z,12.40
2018-05-29T12:34:41.779Z,12.07
2018-05-29T12:37:10.083Z,11.80
2018-05-29T12:39:38.321Z,11.67
2018-05-29T12:42:06.522Z,11.17
2018-05-29T12:44:34.779Z,12.50
2018-05-29T12:47:03.761Z,12.40
2018-05-29T12:49:31.977Z,12.70
2018-05-29T12:52:00.196Z,10.87
2018-05-29T12:54:28.421Z,12.70
2018-05-29T12:56:56.658Z,12.47
2018-05-29T12:59:24.849Z,12.67
2018-05-29T13:01:53.807Z,12.63
2018-05-29T13:04:22.016Z,12.87
2018-05-29T13:06:50.221Z,12.60
2018-05-29T13:09:18.428Z,11.90
2018-05-29T13:11:46.642Z,12.63
2018-05-29T13:14:14.848Z,11.93
2018-05-29T13:16:43.105Z,12.30
2018-05-29T13:19:11.266Z,11.47
2018-05-29T13:21:39.478Z,11.43
2018-05-29T13:24:07.899Z,11.80
2018-05-29T13:26:39.742Z,10.80
2018-05-29T13:29:07.968Z,11.83
2018-05-29T13:31:36.175Z,10.80
2018-05-29T13:34:04.404Z,10.47
2018-05-29T13:36:32.598Z,10.63
2018-05-29T13:39:00.803Z,9.97
2018-05-29T13:41:29.011Z,10.73
2018-05-29T13:43:57.991Z,10.70
2018-05-29T13:46:26.202Z,11.33
2018-05-29T13:48:54.479Z,10.07
2018-05-29T13:51:22.691Z,8.60
2018-05-29T13:53:50.905Z,7.93
2018-05-29T13:56:19.862Z,8.60
2018-05-29T13:58:48.063Z,9.83
2018-05-29T14:01:16.266Z,8.53
2018-05-29T14:03:44.471Z,8.97
2018-05-29T14:06:12.718Z,8.93
2018-05-29T14:08:40.922Z,8.47
2018-05-29T14:11:09.131Z,8.87
2018-05-29T14:13:37.337Z,10.30
2018-05-29T14:16:05.581Z,9.63
2018-05-29T14:18:34.561Z,9.97
2018-05-29T14:21:02.770Z,9.63
2018-05-29T14:23:30.968Z,9.67
2018-05-29T14:25:59.192Z,10.20
2018-05-29T14:28:27.400Z,9.60
2018-05-29T14:30:55.628Z,10.20
2018-05-29T14:33:24.612Z,10.13
2018-05-29T14:35:52.823Z,10.00
2018-05-29T14:38:21.026Z,9.97
2018-05-29T14:40:49.228Z,10.03
2018-05-29T14:43:17.447Z,10.47
2018-05-29T14:45:45.650Z,9.17
2018-05-29T14:48:13.847Z,8.90
2018-05-29T14:50:42.066Z,9.33
2018-05-29T14:53:10.270Z,8.73
2018-05-29T14:55:38.491Z,8.57
2018-05-29T14:58:07.473Z,10.80
2018-05-29T15:00:35.688Z,10.37
2018-05-29T15:03:03.918Z,10.50
2018-05-29T15:05:32.123Z,11.50
2018-05-29T15:08:00.349Z,10.43
2018-05-29T15:10:28.556Z,11.67
2018-05-29T15:12:56.762Z,12.53
2018-05-29T15:15:24.974Z,13.73
2018-05-29T15:17:53.194Z,12.47
2018-05-29T15:20:21.427Z,12.97
2018-05-29T15:22:49.630Z,13.40
2018-05-29T15:25:17.834Z,11.33
2018-05-29T15:27:46.069Z,13.00
2018-05-29T15:30:14.263Z,12.37
2018-05-29T15:32:42.512Z,12.13
2018-05-29T15:35:11.500Z,10.60
2018-05-29T15:37:39.716Z,10.90
2018-05-29T15:40:07.930Z,10.17
2018-05-29T15:42:36.183Z,9.77
2018-05-29T15:45:04.506Z,9.33
2018-05-29T15:47:33.495Z,9.40
2018-05-29T15:50:01.693Z,12.13
2018-05-29T15:52:29.889Z,15.70
2018-05-29T15:54:58.095Z,14.90
2018-05-29T15:57:26.319Z,14.47
2018-05-29T15:59:54.573Z,14.70
2018-05-29T16:02:22.732Z,13.67
2018-05-29T16:04:50.935Z,12.43
2018-05-29T16:07:19.200Z,11.03
2018-05-29T16:09:47.435Z,11.47
2018-05-29T16:12:15.618Z,10.60
2018-05-29T16:14:43.831Z,10.73
2018-05-29T16:17:12.177Z,11.43
2018-05-29T16:19:40.379Z,12.63
2018-05-29T16:22:08.679Z,11.80
2018-05-29T16:24:37.014Z,10.53
2018-05-29T16:27:05.982Z,10.27
2018-05-29T16:29:34.211Z,10.70
2018-05-29T16:32:02.423Z,11.53
2018-05-29T16:34:30.637Z,10.87
2018-05-29T16:36:59.655Z,11.13
2018-05-29T16:39:27.870Z,9.57
2018-05-29T16:41:56.079Z,10.53
2018-05-29T16:44:24.292Z,8.87
2018-05-29T16:46:52.513Z,9.60
2018-05-29T16:49:20.731Z,9.87
2018-05-29T16:51:48.931Z,7.87
2018-05-29T16:54:17.147Z,7.83
2018-05-29T16:56:45.348Z,7.03
2018-05-29T16:59:13.550Z,6.70
2018-05-29T17:01:41.758Z,6.73
2018-05-29T17:04:10.732Z,6.00
2018-05-29T17:06:38.953Z,5.67
2018-05-29T17:09:07.150Z,6.30
2018-05-29T17:11:35.380Z,6.37
2018-05-29T17:14:03.566Z,5.87
2018-05-29T17:16:31.779Z,6.37
2018-05-29T17:18:59.990Z,5.90
2018-05-29T17:21:28.956Z,6.03
2018-05-29T17:23:57.159Z,6.20
2018-05-29T17:26:26.141Z,5.77
2018-05-29T17:28:54.331Z,6.43
2018-05-29T17:31:22.534Z,6.00
2018-05-29T17:33:50.742Z,6.53
2018-05-29T17:36:18.939Z,6.27
2018-05-29T17:38:47.139Z,6.27
2018-05-29T17:41:15.389Z,6.83
2018-05-29T17:43:44.364Z,6.23
2018-05-29T17:46:12.582Z,6.43
2018-05-29T17:48:40.778Z,6.50
2018-05-29T17:51:08.996Z,6.50
2018-05-29T17:53:37.199Z,7.30
2018-05-29T17:56:05.415Z,7.13
2018-05-29T17:58:33.622Z,6.60
2018-05-29T18:01:02.594Z,7.87
2018-05-29T18:03:30.807Z,7.33
2018-05-29T18:05:58.999Z,8.57
2018-05-29T18:08:27.210Z,8.30
2018-05-29T18:10:55.415Z,7.70
2018-05-29T18:13:24.409Z,9.17
2018-05-29T18:15:52.663Z,8.27
2018-05-29T18:18:20.866Z,9.67
2018-05-29T18:20:49.093Z,10.90
2018-05-29T18:23:17.291Z,9.70
2018-05-29T18:25:46.285Z,10.40
2018-05-29T18:28:15.255Z,10.17
2018-05-29T18:30:43.462Z,9.20
2018-05-29T18:33:11.674Z,8.70
2018-05-29T18:35:39.886Z,9.53
2018-05-29T18:38:08.095Z,9.30
2018-05-29T18:40:36.299Z,10.70
2018-05-29T18:43:04.507Z,10.00
2018-05-29T18:45:32.775Z,10.50
2018-05-29T18:48:00.944Z,10.20
2018-05-29T18:50:29.139Z,9.53
2018-05-29T18:52:58.110Z,9.80
2018-05-29T18:55:26.319Z,9.37
2018-05-29T18:57:54.555Z,10.80
2018-05-29T19:00:22.778Z,11.67
2018-05-29T19:02:50.986Z,10.33
2018-05-29T19:05:19.410Z,12.63
2018-05-29T19:07:48.399Z,11.47
2018-05-29T19:10:17.395Z,13.27
2018-05-29T19:12:45.611Z,13.57
2018-05-29T19:15:13.837Z,12.43
2018-05-29T19:17:42.807Z,11.70
2018-05-29T19:20:11.022Z,11.97
2018-05-29T19:22:39.237Z,11.17
2018-05-29T19:25:07.451Z,12.87
2018-05-29T19:27:35.661Z,11.80
2018-05-29T19:30:03.870Z,11.60
2018-05-29T19:32:32.084Z,10.70
2018-05-29T19:35:00.299Z,9.60
2018-05-29T19:37:28.515Z,9.80
2018-05-29T19:39:56.723Z,9.10
2018-05-29T19:42:24.918Z,8.63
2018-05-29T19:44:54.071Z,8.60
2018-05-29T19:47:23.052Z,7.57
2018-05-29T19:49:52.030Z,8.10
2018-05-29T19:52:20.230Z,7.87
2018-05-29T19:54:48.435Z,8.83
2018-05-29T19:57:17.414Z,9.33
2018-05-29T19:59:45.631Z,8.97
2018-05-29T20:02:13.893Z,8.33
2018-05-29T20:04:42.052Z,8.97
2018-05-29T20:07:10.263Z,8.77
2018-05-29T20:09:38.462Z,8.27
2018-05-29T20:12:06.713Z,8.70
2018-05-29T20:14:34.882Z,9.20
2018-05-29T20:17:03.099Z,9.23
2018-05-29T20:19:31.302Z,13.40
2018-05-29T20:21:59.518Z,10.50
2018-05-29T20:24:28.511Z,11.27
2018-05-29T20:26:56.715Z,14.07
2018-05-29T20:29:24.948Z,10.97
2018-05-29T20:31:53.158Z,11.13
2018-05-29T20:34:21.412Z,11.67
2018-05-29T20:36:49.708Z,11.00
2018-05-29T20:39:17.843Z,10.97
2018-05-29T20:41:46.055Z,12.10
2018-05-29T20:44:14.262Z,11.23
2018-05-29T20:46:42.719Z,14.53
2018-05-29T20:49:10.927Z,12.60
2018-05-29T20:51:39.134Z,13.63
2018-05-29T20:54:08.110Z,13.50
2018-05-29T20:56:36.323Z,14.80
2018-05-29T20:59:04.532Z,13.97
2018-05-29T21:01:32.752Z,14.23
2018-05-29T21:04:00.959Z,14.03
2018-05-29T21:06:29.177Z,16.53
2018-05-29T21:08:57.402Z,18.60
2018-05-29T21:11:25.607Z,19.53
2018-05-29T21:13:53.818Z,16.67
2018-05-29T21:16:22.029Z,15.17
2018-05-29T21:18:50.246Z,14.53
2018-05-29T21:21:18.465Z,15.80
2018-05-29T21:23:46.666Z,15.33
2018-05-29T21:26:14.888Z,16.17
2018-05-29T21:28:43.854Z,15.67
2018-05-29T21:31:12.058Z,18.50
2018-05-29T21:33:40.319Z,18.30
2018-05-29T21:36:09.319Z,20.43
2018-05-29T21:38:38.348Z,17.70
2018-05-29T21:41:06.522Z,19.20
2018-05-29T21:43:34.783Z,19.20
2018-05-29T21:46:03.000Z,20.63
2018-05-29T21:48:31.226Z,21.47
2018-05-29T21:50:59.447Z,21.20
2018-05-29T21:53:27.655Z,22.53
2018-05-29T21:55:56.632Z,19.47
2018-05-29T21:58:24.845Z,21.10
2018-05-29T22:00:53.070Z,18.90
2018-05-29T22:03:21.286Z,17.03
2018-05-29T22:05:49.487Z,18.63
2018-05-29T22:08:17.704Z,23.03
2018-05-29T22:10:45.910Z,15.90
2018-05-29T22:13:14.118Z,16.43
2018-05-29T22:15:42.335Z,16.67
2018-05-29T22:18:11.323Z,14.73
2018-05-29T22:20:40.299Z,16.57
2018-05-29T22:23:08.503Z,15.93
2018-05-29T22:25:36.710Z,15.37
2018-05-29T22:28:04.947Z,16.97
2018-05-29T22:30:33.209Z,15.23
2018-05-29T22:33:01.351Z,12.80
2018-05-29T22:35:29.558Z,12.60
2018-05-29T22:37:57.770Z,11.73
2018-05-29T22:40:26.001Z,10.47
2018-05-29T22:42:54.203Z,11.20
2018-05-29T22:45:22.406Z,10.73
2018-05-29T22:47:50.614Z,9.90
2018-05-29T22:50:18.837Z,9.73
2018-05-29T22:52:47.071Z,9.50
2018-05-29T22:55:15.279Z,9.53
2018-05-29T22:57:43.491Z,10.60
2018-05-29T23:00:11.723Z,11.50
2018-05-29T23:02:39.669Z,10.40
2018-05-29T23:05:08.042Z,11.07
2018-05-29T23:07:37.042Z,10.73
2018-05-29T23:10:06.012Z,11.50
2018-05-29T23:12:34.233Z,9.97
2018-05-29T23:15:02.427Z,9.97
2018-05-29T23:17:30.631Z,9.53
2018-05-29T23:19:58.835Z,8.90
2018-05-29T23:22:27.034Z,8.27
2018-05-29T23:24:55.237Z,8.50
2018-05-29T23:27:23.435Z,8.53
2018-05-29T23:29:51.646Z,7.67
2018-05-29T23:32:19.859Z,8.27
2018-05-29T23:34:48.066Z,8.90
2018-05-29T23:37:16.287Z,8.50
2018-05-29T23:39:44.500Z,8.33
2018-05-29T23:42:12.730Z,7.03
2018-05-29T23:44:40.926Z,6.83
2018-05-29T23:47:09.135Z,5.93
2018-05-29T23:49:37.340Z,6.50
2018-05-29T23:52:05.540Z,6.17
2018-05-29T23:54:33.751Z,6.20
2018-05-29T23:57:01.954Z,5.67
2018-05-29T23:59:30.198Z,5.23
